EGKB/BQH METAR and TAF weather

Enter ICAO airport designator
Station Type Date Time Source
EGKB METAR 2020/03/28 20:50 UTC NOAA

EGKB 282050Z 01016KT 9999 FEW025 03/M01 Q1032


Station Type Date Time Source
EGKB Decoded METAR 2020/03/28 20:50 UTC NOAA

Biggin Hill , United Kingdom (EGKB) 51-19N 000-02E
Mar 28, 2020 - 04:50 PM EDT / 2020.03.28 2050 UTC
Wind: from the N (010 degrees) at 18 MPH (16 KT):0
Visibility: greater than 7 mile(s):0
Sky conditions: mostly clear
Temperature: 37 F (3 C)
Dew Point: 30 F (-1 C)
Relative Humidity: 74%
Pressure (altimeter): 30.47 in. Hg (1032 hPa)
ob: EGKB 282050Z 01016KT 9999 FEW025 03/M01 Q1032
cycle: 21

Station Type Date Time Source
EGKB TAF 2019/07/13 18:09 UTC NOAA

TAF EGKB 131706Z 1318/1422 03009KT 9999 SCT040 PROB30
TEMPO 1318/1320 8000 -SHRA

Example: see airport list